Time;durP1;ratioP1;P1;durP2;ratioP2;P2;SDS_P1;SDS_P2;PMS_P1;PMS_P2;Temp;Humidity;BMP_temperature;BMP_pressure;BME280_temperature;BME280_humidity;BME280_pressure;Samples;Min_cycle;Max_cycle;Signal;HPM_P1;HPM_P2
2020/12/29 00:01:36;;;;;;;;;;;;;;;-2.62;95.52;101542.89;1867288;77;20239;-39
2020/12/29 00:04:07;;;;;;;;;;;;;;;-2.60;95.62;101542.56;1867548;76;20164;-40
2020/12/29 00:06:37;;;;;;;;;;;;;;;-2.61;95.72;101540.80;1867452;77;20180;-40
2020/12/29 00:09:06;;;;;;;;;;;;;;;-2.60;95.80;101540.89;1866643;76;20398;-40
2020/12/29 00:11:33;;;;;;;;;;;;;;;-2.59;95.90;101542.66;1868672;75;20133;-39
2020/12/29 00:14:01;;;;;;;;;;;;;;;-2.60;95.98;101537.03;1885515;75;20386;-40
2020/12/29 00:16:29;;;;;;;;;;;;;;;-2.59;96.08;101534.95;1902337;75;20148;-39
2020/12/29 00:18:57;;;;;;;;;;;;;;;-2.58;96.17;101531.98;1901614;75;20128;-40
2020/12/29 00:21:25;;;;;;;;;;;;;;;-2.59;96.26;101522.12;1867302;77;20172;-41
2020/12/29 00:23:52;;;;;;;;;;;;;;;-2.59;96.34;101509.28;1867284;77;20283;-39
2020/12/29 00:26:20;;;;;;;;;;;;;;;-2.60;96.44;101506.23;1867253;77;20271;-40
2020/12/29 00:28:47;;;;;;;;;;;;;;;-2.60;96.55;101517.78;1867380;77;20223;-39
2020/12/29 00:31:19;;;;;;;;;;;;;;;-2.60;96.68;101502.38;1867296;77;20188;-39
2020/12/29 00:33:47;;;;;;;;;;;;;;;-2.59;96.82;101504.16;1867401;77;20129;-39
2020/12/29 00:36:16;;;;;;;;;;;;;;;-2.60;97.00;101491.23;1867399;77;20568;-40
2020/12/29 00:38:44;;;;;;;;;;;;;;;-2.58;97.19;101499.91;1867599;77;20160;-40
2020/12/29 00:41:11;;;;;;;;;;;;;;;-2.60;97.38;101490.84;1867326;77;20224;-39
2020/12/29 00:43:40;;;;;;;;;;;;;;;-2.57;97.59;101489.72;1867630;77;20121;-40
2020/12/29 00:46:09;;;;;;;;;;;;;;;-2.55;97.77;101491.05;1867330;77;20374;-39
2020/12/29 00:48:37;;;;;;;;;;;;;;;-2.55;97.92;101484.63;1867255;77;20164;-39
2020/12/29 00:51:11;;;;;;;;;;;;;;;-2.55;98.09;101485.52;1867238;77;20148;-40
2020/12/29 00:53:41;;;;;;;;;;;;;;;-2.54;98.24;101488.56;1867441;76;20132;-40
2020/12/29 00:56:10;;;;;;;;;;;;;;;-2.54;98.41;101486.00;1867168;77;20151;-39
2020/12/29 00:58:38;;;;;;;;;;;;;;;-2.53;98.56;101491.61;1874387;76;20445;-40
2020/12/29 01:01:08;;;;;;;;;;;;;;;-2.51;98.74;101492.98;1867337;77;20131;-40
2020/12/29 01:03:40;;;;;;;;;;;;;;;-2.50;98.88;101493.46;1867645;76;20164;-39
2020/12/29 01:06:08;;;;;;;;;;;;;;;-2.49;99.03;101487.49;1867248;77;20133;-39
2020/12/29 01:08:36;;;;;;;;;;;;;;;-2.49;99.18;101481.08;1867462;77;20406;-39
2020/12/29 01:11:04;;;;;;;;;;;;;;;-2.47;99.31;101471.77;1867228;76;20263;-39
2020/12/29 01:13:36;;;;;;;;;;;;;;;-2.47;99.48;101467.52;1864506;77;20387;-39
2020/12/29 01:16:05;;;;;;;;;;;;;;;-2.46;99.65;101469.69;1867314;75;20132;-45
2020/12/29 01:18:33;;;;;;;;;;;;;;;-2.46;99.83;101468.40;1867281;77;20219;-40
2020/12/29 01:21:01;;;;;;;;;;;;;;;-2.45;99.99;101465.03;1867370;77;20224;-40
2020/12/29 01:23:29;;;;;;;;;;;;;;;-2.44;100.00;101478.34;1866986;77;20247;-40
2020/12/29 01:25:56;;;;;;;;;;;;;;;-2.42;100.00;101476.71;1867242;77;20307;-40
2020/12/29 01:28:24;;;;;;;;;;;;;;;-2.43;100.00;101467.28;1867196;77;20160;-39
2020/12/29 01:30:52;;;;;;;;;;;;;;;-2.41;100.00;101470.38;1867433;77;20129;-40
2020/12/29 01:33:19;;;;;;;;;;;;;;;-2.39;100.00;101468.29;1867186;76;20183;-40
2020/12/29 01:35:47;;;;;;;;;;;;;;;-2.40;100.00;101459.70;1867290;77;20132;-40
2020/12/29 01:38:15;;;;;;;;;;;;;;;-2.38;100.00;101464.92;1867288;77;20270;-40
2020/12/29 01:40:42;;;;;;;;;;;;;;;-2.38;100.00;101470.05;1867426;77;20220;-40
2020/12/29 01:43:10;;;;;;;;;;;;;;;-2.37;100.00;101471.82;1867458;77;20414;-40
2020/12/29 01:45:38;;;;;;;;;;;;;;;-2.38;100.00;101469.66;1867398;77;20391;-40
2020/12/29 01:48:06;;;;;;;;;;;;;;;-2.38;100.00;101467.09;1867214;77;20445;-40
2020/12/29 01:50:33;;;;;;;;;;;;;;;-2.37;100.00;101470.53;1867209;77;20291;-40
2020/12/29 01:53:02;;;;;;;;;;;;;;;-2.38;100.00;101467.09;1867395;77;20379;-41
2020/12/29 01:55:30;;;;;;;;;;;;;;;-2.38;100.00;101469.66;1867232;77;20287;-40
2020/12/29 01:58:00;;;;;;;;;;;;;;;-2.38;100.00;101470.94;1867446;77;20375;-40
2020/12/29 02:00:28;;;;;;;;;;;;;;;-2.36;100.00;101473.58;1874156;76;20184;-40
2020/12/29 02:02:56;;;;;;;;;;;;;;;-2.34;100.00;101469.38;1846171;77;20136;-41
2020/12/29 02:05:25;;;;;;;;;;;;;;;-2.34;100.00;101470.66;1867158;77;20126;-40
2020/12/29 02:07:53;;;;;;;;;;;;;;;-2.34;100.00;101462.96;1867473;77;20121;-40
2020/12/29 02:10:21;;;;;;;;;;;;;;;-2.32;100.00;101469.06;1867158;77;20207;-38
2020/12/29 02:12:49;;;;;;;;;;;;;;;-2.31;100.00;101469.14;1867502;76;20152;-39
2020/12/29 02:15:16;;;;;;;;;;;;;;;-2.29;100.00;101466.62;1867184;77;20121;-40
2020/12/29 02:17:44;;;;;;;;;;;;;;;-2.28;100.00;101469.27;1867630;77;20184;-39
2020/12/29 02:20:11;;;;;;;;;;;;;;;-2.25;100.00;101464.69;1867403;77;20160;-40
2020/12/29 02:22:39;;;;;;;;;;;;;;;-2.23;100.00;101459.23;1867410;77;20225;-40
2020/12/29 02:26:50;;;;;;;;;;;;;;;-2.16;100.00;101457.39;1904613;74;20470;-40
2020/12/29 02:29:17;;;;;;;;;;;;;;;-2.19;100.00;101467.55;1885972;75;20184;-41
2020/12/29 02:31:45;;;;;;;;;;;;;;;-2.17;100.00;101459.52;1898350;75;20160;-41
2020/12/29 02:34:13;;;;;;;;;;;;;;;-2.15;100.00;101462.61;1903050;75;20120;-40
2020/12/29 02:36:42;;;;;;;;;;;;;;;-2.12;100.00;101460.20;1903258;75;20409;-40
2020/12/29 02:39:09;;;;;;;;;;;;;;;-2.08;100.00;101456.95;1903006;75;20127;-40
2020/12/29 02:41:38;;;;;;;;;;;;;;;-2.03;100.00;101444.31;1903053;75;20199;-39
2020/12/29 02:44:05;;;;;;;;;;;;;;;-1.99;100.00;101438.52;1903028;75;20274;-39
2020/12/29 02:46:33;;;;;;;;;;;;;;;-1.96;100.00;101437.36;1903079;75;20263;-39
2020/12/29 02:49:00;;;;;;;;;;;;;;;-1.90;100.00;101427.78;1903440;75;20160;-39
2020/12/29 02:51:28;;;;;;;;;;;;;;;-1.87;100.00;101427.50;1902915;75;20136;-40
2020/12/29 02:53:55;;;;;;;;;;;;;;;-1.83;100.00;101428.50;1903066;75;20167;-39
2020/12/29 02:56:23;;;;;;;;;;;;;;;-1.82;100.00;101427.70;1903232;75;20204;-39
2020/12/29 02:58:50;;;;;;;;;;;;;;;-1.79;100.00;101421.02;1903364;75;20151;-39
2020/12/29 03:01:18;;;;;;;;;;;;;;;-1.78;100.00;101418.94;1902959;75;20155;-39
2020/12/29 03:03:46;;;;;;;;;;;;;;;-1.75;100.00;101418.17;1903004;75;20121;-40
2020/12/29 03:06:14;;;;;;;;;;;;;;;-1.74;100.00;101422.50;1903104;75;20382;-40
2020/12/29 03:08:42;;;;;;;;;;;;;;;-1.73;100.00;101407.16;1903205;75;20222;-40
2020/12/29 03:11:09;;;;;;;;;;;;;;;-1.70;100.00;101405.98;1903013;75;20132;-40
2020/12/29 03:13:38;;;;;;;;;;;;;;;-1.69;100.00;101407.75;1903442;75;20254;-40
2020/12/29 03:16:06;;;;;;;;;;;;;;;-1.68;100.00;101417.23;1902992;75;20230;-40
2020/12/29 03:18:35;;;;;;;;;;;;;;;-1.67;100.00;101407.83;1903030;75;20176;-39
2020/12/29 03:21:03;;;;;;;;;;;;;;;-1.65;100.00;101408.78;1903138;75;20140;-39
2020/12/29 03:23:31;;;;;;;;;;;;;;;-1.65;100.00;101414.80;1902999;75;20120;-38
2020/12/29 03:25:59;;;;;;;;;;;;;;;-1.63;100.00;101416.13;1903098;75;20492;-40
2020/12/29 03:28:26;;;;;;;;;;;;;;;-1.63;100.00;101413.56;1903106;75;20156;-40
2020/12/29 03:30:54;;;;;;;;;;;;;;;-1.62;100.00;101415.33;1903088;75;20151;-39
2020/12/29 03:33:22;;;;;;;;;;;;;;;-1.62;100.00;101420.47;1902981;75;20120;-39
2020/12/29 03:35:50;;;;;;;;;;;;;;;-1.62;100.00;101419.18;1902959;75;20179;-40
2020/12/29 03:38:18;;;;;;;;;;;;;;;-1.63;100.00;101419.98;1902679;75;20251;-40
2020/12/29 03:40:45;;;;;;;;;;;;;;;-1.63;100.00;101409.30;1902752;75;20187;-40
2020/12/29 03:43:14;;;;;;;;;;;;;;;-1.63;100.00;101410.99;1902470;75;20239;-40
2020/12/29 03:45:43;;;;;;;;;;;;;;;-1.63;100.00;101411.88;1902587;75;20167;-40
2020/12/29 03:48:15;;;;;;;;;;;;;;;-1.63;100.00;101405.44;1902675;75;20135;-39
2020/12/29 03:50:42;;;;;;;;;;;;;;;-1.61;100.00;101407.69;1902345;75;20128;-39
2020/12/29 03:53:10;;;;;;;;;;;;;;;-1.62;100.00;101400.78;1902608;75;20164;-40
2020/12/29 03:55:38;;;;;;;;;;;;;;;-1.60;100.00;101399.57;1902324;75;20136;-39
2020/12/29 03:58:06;;;;;;;;;;;;;;;-1.59;100.00;101403.02;1902339;75;20219;-41
2020/12/29 04:00:34;;;;;;;;;;;;;;;-1.60;100.00;101399.57;1902381;75;20140;-40
2020/12/29 04:03:03;;;;;;;;;;;;;;;-1.59;100.00;101406.87;1902772;75;20140;-41
2020/12/29 04:05:31;;;;;;;;;;;;;;;-1.59;100.00;101404.30;1902347;75;20401;-41
2020/12/29 04:08:00;;;;;;;;;;;;;;;-1.59;100.00;101404.30;1902580;75;20278;-40
2020/12/29 04:10:28;;;;;;;;;;;;;;;-1.60;100.00;101404.71;1902299;75;20430;-40
2020/12/29 04:12:57;;;;;;;;;;;;;;;-1.62;100.00;101403.35;1902716;75;20120;-40
2020/12/29 04:15:25;;;;;;;;;;;;;;;-1.62;100.00;101399.50;1902222;75;20178;-40
2020/12/29 04:17:52;;;;;;;;;;;;;;;-1.61;100.00;101399.97;1902298;75;20231;-40
2020/12/29 04:20:20;;;;;;;;;;;;;;;-1.59;100.00;101395.31;1902042;75;20278;-40
2020/12/29 04:22:48;;;;;;;;;;;;;;;-1.59;100.00;101391.05;1902643;75;20180;-40
2020/12/29 04:25:16;;;;;;;;;;;;;;;-1.57;100.00;101395.83;1902251;75;20453;-40
2020/12/29 04:27:44;;;;;;;;;;;;;;;-1.53;100.00;101400.72;1902212;75;20171;-41
2020/12/29 04:30:12;;;;;;;;;;;;;;;-1.53;100.00;101397.73;1902292;75;20127;-40
2020/12/29 04:32:40;;;;;;;;;;;;;;;-1.49;100.00;101401.30;1902218;75;20258;-40
2020/12/29 04:35:08;;;;;;;;;;;;;;;-1.48;100.00;101397.52;1902482;75;20220;-40
2020/12/29 04:37:36;;;;;;;;;;;;;;;-1.47;100.00;101396.72;1893604;75;20392;-40
2020/12/29 04:40:05;;;;;;;;;;;;;;;-1.46;100.00;101397.19;1873945;75;20522;-39
2020/12/29 04:42:34;;;;;;;;;;;;;;;-1.45;100.00;101398.08;1899335;75;20136;-39
2020/12/29 04:45:04;;;;;;;;;;;;;;;-1.44;100.00;101395.95;1902392;75;20140;-40
2020/12/29 04:47:31;;;;;;;;;;;;;;;-1.43;100.00;101394.73;1884255;75;20403;-40
2020/12/29 04:49:59;;;;;;;;;;;;;;;-1.39;100.00;101392.78;1867124;77;20272;-39
2020/12/29 04:52:27;;;;;;;;;;;;;;;-1.36;100.00;101388.16;1867189;77;20138;-41
2020/12/29 04:54:56;;;;;;;;;;;;;;;-1.34;100.00;101393.84;1867156;75;20264;-40
2020/12/29 04:57:24;;;;;;;;;;;;;;;-1.32;100.00;101388.38;1867116;75;20202;-39
2020/12/29 04:59:53;;;;;;;;;;;;;;;-1.27;100.00;101389.44;1869247;75;20589;-39
2020/12/29 05:02:21;;;;;;;;;;;;;;;-1.23;100.00;101381.42;1867213;77;20275;-40
2020/12/29 05:04:49;;;;;;;;;;;;;;;-1.21;100.00;101381.97;1897004;75;20227;-40
2020/12/29 05:07:17;;;;;;;;;;;;;;;-1.18;100.00;101390.64;1902214;75;20120;-40
2020/12/29 05:09:46;;;;;;;;;;;;;;;-1.16;100.00;101390.27;1884862;75;20396;-40
2020/12/29 05:12:17;;;;;;;;;;;;;;;-1.14;100.00;101397.66;1867127;75;20180;-41
2020/12/29 05:14:45;;;;;;;;;;;;;;;-1.11;100.00;101404.20;1871583;75;20261;-40
2020/12/29 05:17:15;;;;;;;;;;;;;;;-1.09;100.00;101406.03;1871668;75;20232;-40
2020/12/29 05:19:44;;;;;;;;;;;;;;;-1.08;100.00;101405.63;1871878;75;20142;-39
2020/12/29 05:22:11;;;;;;;;;;;;;;;-1.06;100.00;101422.02;1867072;77;20279;-39
2020/12/29 05:24:46;;;;;;;;;;;;;;;-1.05;100.00;101421.21;1864373;77;20144;-40
2020/12/29 05:27:14;;;;;;;;;;;;;;;-1.03;100.00;101428.56;1867003;75;20201;-42
2020/12/29 05:29:42;;;;;;;;;;;;;;;-1.02;100.00;101423.89;1836293;77;20159;-41
2020/12/29 05:32:13;;;;;;;;;;;;;;;-1.01;100.00;101429.52;1872439;75;20168;-40
2020/12/29 05:34:41;;;;;;;;;;;;;;;-0.99;100.00;101436.91;1873591;75;20140;-41
2020/12/29 05:37:14;;;;;;;;;;;;;;;-0.97;100.00;101442.97;1855723;76;20192;-41
2020/12/29 05:39:42;;;;;;;;;;;;;;;-0.96;100.00;101431.45;1872462;75;20188;-43
2020/12/29 05:42:10;;;;;;;;;;;;;;;-0.94;100.00;101422.52;1866794;77;20227;-40
2020/12/29 05:44:40;;;;;;;;;;;;;;;-0.92;100.00;101425.61;1866818;75;20152;-40
2020/12/29 05:47:07;;;;;;;;;;;;;;;-0.89;100.00;101431.30;1873288;75;20203;-41
2020/12/29 05:49:35;;;;;;;;;;;;;;;-0.87;100.00;101438.28;1849570;75;20180;-40
2020/12/29 05:52:03;;;;;;;;;;;;;;;-0.82;100.00;101433.31;1868223;75;20255;-47
2020/12/29 05:54:31;;;;;;;;;;;;;;;-0.76;100.00;101428.81;1839735;75;20213;-40
2020/12/29 05:56:59;;;;;;;;;;;;;;;-0.73;100.00;101425.98;1814292;75;20197;-41
2020/12/29 05:59:27;;;;;;;;;;;;;;;-0.70;100.00;101432.52;1869177;75;20168;-43
2020/12/29 06:01:56;;;;;;;;;;;;;;;-0.67;100.00;101427.91;1870546;75;20201;-41
2020/12/29 06:04:24;;;;;;;;;;;;;;;-0.64;100.00;101426.73;1843434;75;20285;-42
2020/12/29 06:06:55;;;;;;;;;;;;;;;-0.62;100.00;101419.95;1837706;75;20526;-40
2020/12/29 06:09:29;;;;;;;;;;;;;;;-0.60;100.00;101420.50;1837685;75;20461;-40
2020/12/29 06:12:09;;;;;;;;;;;;;;;-0.58;100.00;101420.13;1837399;75;20236;-41
2020/12/29 06:14:39;;;;;;;;;;;;;;;-0.55;100.00;101406.10;1838273;75;20190;-42
2020/12/29 06:17:07;;;;;;;;;;;;;;;-0.51;100.00;101415.69;1838776;75;20201;-42
2020/12/29 06:19:36;;;;;;;;;;;;;;;-0.48;100.00;101422.27;1809438;77;20368;-42
2020/12/29 06:22:11;;;;;;;;;;;;;;;-0.44;100.00;101425.41;1818829;76;20681;-42
2020/12/29 06:26:50;;;;;;;;;;;;;;;-0.20;100.00;101426.80;1899144;74;20202;-41
2020/12/29 06:29:21;;;;;;;;;;;;;;;-0.08;100.00;101434.11;1866945;75;20178;-40
2020/12/29 06:31:50;;;;;;;;;;;;;;;0.04;100.00;101422.97;1869683;75;20131;-39
2020/12/29 06:34:18;;;;;;;;;;;;;;;0.12;100.00;101416.41;1837877;75;20205;-41
2020/12/29 06:36:48;;;;;;;;;;;;;;;0.16;100.00;101427.69;1868589;75;20185;-43
2020/12/29 06:39:15;;;;;;;;;;;;;;;0.18;100.00;101429.52;1813410;77;20171;-41
2020/12/29 06:41:42;;;;;;;;;;;;;;;0.20;100.00;101420.11;1752119;79;20195;-48
2020/12/29 06:44:13;;;;;;;;;;;;;;;0.23;100.00;101429.27;1777684;79;20205;-42
2020/12/29 06:46:40;;;;;;;;;;;;;;;0.25;100.00;101427.63;1805507;79;20260;-43
2020/12/29 06:49:19;;;;;;;;;;;;;;;0.27;100.00;101431.53;1810135;79;20145;-42
2020/12/29 06:51:50;;;;;;;;;;;;;;;0.28;100.00;101432.88;1801640;78;20199;-41
2020/12/29 06:54:21;;;;;;;;;;;;;;;0.31;100.00;101426.56;1786219;77;20477;-41
2020/12/29 06:57:01;;;;;;;;;;;;;;;0.32;100.00;101428.32;1854076;77;20292;-45
2020/12/29 06:59:38;;;;;;;;;;;;;;;0.32;100.00;101422.28;1773160;79;20184;-39
2020/12/29 07:02:20;;;;;;;;;;;;;;;0.32;100.00;101420.99;1818437;78;20137;-40
2020/12/29 07:04:54;;;;;;;;;;;;;;;0.31;100.00;101421.41;1830610;77;20194;-43
2020/12/29 07:07:25;;;;;;;;;;;;;;;0.33;100.00;101426.18;1825307;77;20230;-42
2020/12/29 07:10:10;;;;;;;;;;;;;;;0.32;100.00;101419.30;1786663;79;20325;-41
2020/12/29 07:12:46;;;;;;;;;;;;;;;0.32;100.00;101415.42;1821525;77;20157;-40
2020/12/29 07:15:22;;;;;;;;;;;;;;;0.32;100.00;101418.41;1821362;77;20180;-40
2020/12/29 07:17:54;;;;;;;;;;;;;;;0.31;100.00;101425.27;1821209;77;20295;-41
2020/12/29 07:20:24;;;;;;;;;;;;;;;0.34;100.00;101433.51;1787715;79;20145;-42
2020/12/29 07:23:00;;;;;;;;;;;;;;;0.33;100.00;101435.20;1781462;79;20291;-41
2020/12/29 07:25:32;;;;;;;;;;;;;;;0.35;100.00;101437.84;1799821;79;20145;-41
2020/12/29 07:28:06;;;;;;;;;;;;;;;0.34;100.00;101439.95;1827272;77;20245;-42
2020/12/29 07:30:36;;;;;;;;;;;;;;;0.35;100.00;101431.41;1790643;79;20297;-42
2020/12/29 07:33:13;;;;;;;;;;;;;;;0.36;100.00;101426.30;1760457;77;20174;-42
2020/12/29 07:35:55;;;;;;;;;;;;;;;0.38;100.00;101427.66;1754313;79;20238;-41
2020/12/29 07:38:30;;;;;;;;;;;;;;;0.40;100.00;101425.58;1792752;77;20200;-44
2020/12/29 07:41:06;;;;;;;;;;;;;;;0.40;100.00;101437.19;1766615;77;20269;-41
2020/12/29 07:43:34;;;;;;;;;;;;;;;0.43;100.00;101433.85;1826738;77;20154;-43
2020/12/29 07:46:04;;;;;;;;;;;;;;;0.43;100.00;101431.27;1786237;79;20187;-42
2020/12/29 07:48:36;;;;;;;;;;;;;;;0.45;100.00;101437.37;1826845;77;20220;-43
2020/12/29 07:51:07;;;;;;;;;;;;;;;0.48;100.00;101437.47;1813173;77;20840;-44
2020/12/29 07:53:36;;;;;;;;;;;;;;;0.50;100.00;101431.08;1826910;77;20181;-42
2020/12/29 07:56:03;;;;;;;;;;;;;;;0.48;100.00;101427.15;1823629;77;20196;-42
2020/12/29 07:58:32;;;;;;;;;;;;;;;0.49;100.00;101425.04;1827098;77;20163;-42
2020/12/29 08:01:02;;;;;;;;;;;;;;;0.49;100.00;101424.16;1822101;77;20286;-40
2020/12/29 08:03:30;;;;;;;;;;;;;;;0.50;100.00;101406.58;1821338;77;20926;-43
2020/12/29 08:05:58;;;;;;;;;;;;;;;0.51;100.00;101409.63;1815278;79;20188;-42
2020/12/29 08:08:25;;;;;;;;;;;;;;;0.53;100.00;101418.27;1819616;77;20177;-42
2020/12/29 08:10:53;;;;;;;;;;;;;;;0.55;100.00;101407.61;1827193;77;20177;-40
2020/12/29 08:13:21;;;;;;;;;;;;;;;0.55;100.00;101419.22;1824958;77;20226;-42
2020/12/29 08:15:49;;;;;;;;;;;;;;;0.57;100.00;101421.03;1827587;77;20231;-41
2020/12/29 08:18:18;;;;;;;;;;;;;;;0.58;100.00;101404.73;1827903;77;20449;-40
2020/12/29 08:20:56;;;;;;;;;;;;;;;0.58;100.00;101385.39;1771109;77;20168;-40
2020/12/29 08:23:25;;;;;;;;;;;;;;;0.60;100.00;101389.28;1831113;77;20405;-52
2020/12/29 08:25:55;;;;;;;;;;;;;;;0.62;100.00;101396.68;1834270;77;20289;-40
2020/12/29 08:28:24;;;;;;;;;;;;;;;0.63;100.00;101403.19;1825158;77;20272;-41
2020/12/29 08:30:54;;;;;;;;;;;;;;;0.67;100.00;101401.16;1745480;77;20439;-41
2020/12/29 08:33:26;;;;;;;;;;;;;;;0.68;100.00;101387.45;1760083;77;20197;-44
2020/12/29 08:35:59;;;;;;;;;;;;;;;0.69;100.00;101397.36;1731200;79;20205;-40
2020/12/29 08:38:42;;;;;;;;;;;;;;;0.70;100.00;101402.58;1769581;79;20193;-42
2020/12/29 08:44:41;;;;;;;;;;;;;;;0.75;100.00;101404.89;1773751;77;20228;-42
2020/12/29 08:47:15;;;;;;;;;;;;;;;0.76;100.00;101407.06;1795259;79;20184;-42
2020/12/29 08:49:44;;;;;;;;;;;;;;;0.75;100.00;101404.89;1787676;79;20207;-40
2020/12/29 08:52:12;;;;;;;;;;;;;;;0.75;100.00;101401.44;1782087;79;20214;-44
2020/12/29 08:54:43;;;;;;;;;;;;;;;0.73;100.00;101406.53;1794260;77;20270;-41
2020/12/29 08:57:31;;;;;;;;;;;;;;;0.72;100.00;101401.34;1749275;77;20747;-39
2020/12/29 09:00:01;;;;;;;;;;;;;;;0.72;100.00;101400.06;1796925;77;20198;-46
2020/12/29 09:02:30;;;;;;;;;;;;;;;0.72;100.00;101393.61;1819360;77;20173;-40
2020/12/29 09:04:58;;;;;;;;;;;;;;;0.72;100.00;101392.31;1822860;77;20184;-39
2020/12/29 09:07:28;;;;;;;;;;;;;;;0.72;100.00;101391.88;1821513;77;20149;-42
2020/12/29 09:10:07;;;;;;;;;;;;;;;0.75;100.00;101388.53;1795218;79;20129;-42
2020/12/29 09:12:35;;;;;;;;;;;;;;;0.77;100.00;101380.03;1821007;78;20301;-43
2020/12/29 09:15:04;;;;;;;;;;;;;;;0.78;100.00;101378.33;1817185;78;20228;-41
2020/12/29 09:17:40;;;;;;;;;;;;;;;0.78;100.00;101373.16;1814885;78;20385;-42
2020/12/29 09:20:23;;;;;;;;;;;;;;;0.76;100.00;101367.06;1764560;78;20248;-41
2020/12/29 09:23:15;;;;;;;;;;;;;;;0.76;100.00;101376.98;1776337;79;20577;-45
2020/12/29 09:25:43;;;;;;;;;;;;;;;0.76;100.00;101380.84;1800175;79;20286;-45
2020/12/29 09:28:19;;;;;;;;;;;;;;;0.78;100.00;101374.45;1765047;79;20219;-46
2020/12/29 09:31:00;;;;;;;;;;;;;;;0.81;100.00;101374.54;1820962;77;20624;-44
2020/12/29 09:33:29;;;;;;;;;;;;;;;0.83;100.00;101372.02;1826416;77;20173;-44
2020/12/29 09:36:02;;;;;;;;;;;;;;;0.84;100.00;101377.23;1828936;77;20141;-46
2020/12/29 09:38:33;;;;;;;;;;;;;;;0.86;100.00;101378.14;1797831;77;20299;-42
2020/12/29 09:41:04;;;;;;;;;;;;;;;0.87;100.00;101366.12;1827566;77;20207;-43
2020/12/29 09:43:34;;;;;;;;;;;;;;;0.88;100.00;101348.11;1827887;77;20192;-45
2020/12/29 09:46:05;;;;;;;;;;;;;;;0.89;100.00;101341.25;1825085;77;20255;-45
2020/12/29 09:48:33;;;;;;;;;;;;;;;0.89;100.00;101338.66;1828958;77;20707;-45
2020/12/29 09:51:01;;;;;;;;;;;;;;;0.89;100.00;101339.55;1824406;77;20281;-43
2020/12/29 09:53:30;;;;;;;;;;;;;;;0.90;100.00;101346.47;1823194;77;20317;-43
2020/12/29 09:55:58;;;;;;;;;;;;;;;0.91;100.00;101348.64;1825324;77;20180;-42
2020/12/29 09:58:26;;;;;;;;;;;;;;;0.92;100.00;101345.23;1824024;77;20305;-44
2020/12/29 10:00:54;;;;;;;;;;;;;;;0.92;100.00;101351.23;1825359;77;20179;-45
2020/12/29 10:03:22;;;;;;;;;;;;;;;0.93;100.00;101365.91;1825184;77;20176;-45
2020/12/29 10:05:50;;;;;;;;;;;;;;;0.96;100.00;101357.40;1825133;77;20294;-46
2020/12/29 10:08:17;;;;;;;;;;;;;;;0.98;100.00;101363.50;1809777;77;20338;-45
2020/12/29 10:10:47;;;;;;;;;;;;;;;0.96;100.00;101360.86;1808167;78;20125;-46
2020/12/29 10:13:15;;;;;;;;;;;;;;;0.96;100.00;101353.52;1807261;79;20200;-43
2020/12/29 10:15:42;;;;;;;;;;;;;;;0.97;100.00;101348.42;1806161;79;20291;-44
2020/12/29 10:18:10;;;;;;;;;;;;;;;0.97;100.00;101340.67;1802121;79;20205;-45
2020/12/29 10:20:37;;;;;;;;;;;;;;;0.97;100.00;101334.22;1800901;78;20305;-44
2020/12/29 10:26:52;;;;;;;;;;;;;;;1.01;100.00;101336.06;1901324;74;20477;-44
2020/12/29 10:29:21;;;;;;;;;;;;;;;0.98;100.00;101340.27;1887005;74;20310;-44
2020/12/29 10:31:49;;;;;;;;;;;;;;;0.97;100.00;101341.97;1895984;74;20269;-43
2020/12/29 10:34:19;;;;;;;;;;;;;;;0.98;100.00;101343.73;1889043;74;20436;-45
2020/12/29 10:36:51;;;;;;;;;;;;;;;0.98;100.00;101333.40;1836947;75;20174;-44
2020/12/29 10:39:19;;;;;;;;;;;;;;;0.99;100.00;101341.99;1891194;74;20242;-44
2020/12/29 10:41:46;;;;;;;;;;;;;;;0.99;100.00;101342.88;1886322;74;20183;-44
2020/12/29 10:44:14;;;;;;;;;;;;;;;1.02;100.00;101338.23;1888492;74;20269;-43
2020/12/29 10:46:46;;;;;;;;;;;;;;;1.03;100.00;101344.74;1896488;74;20267;-45
2020/12/29 10:49:14;;;;;;;;;;;;;;;1.01;100.00;101336.06;1899124;74;20292;-44
2020/12/29 10:51:42;;;;;;;;;;;;;;;0.99;100.00;101339.41;1897291;74;20457;-45
2020/12/29 10:54:10;;;;;;;;;;;;;;;0.94;100.00;101326.78;1894201;74;20215;-45
2020/12/29 10:56:38;;;;;;;;;;;;;;;0.92;100.00;101329.30;1887399;74;20292;-46
2020/12/29 10:59:07;;;;;;;;;;;;;;;0.93;100.00;101339.22;1889504;74;20505;-43
2020/12/29 11:01:35;;;;;;;;;;;;;;;0.92;100.00;101343.50;1888697;74;20669;-45
2020/12/29 11:04:03;;;;;;;;;;;;;;;0.93;100.00;101339.22;1891502;74;20177;-45
2020/12/29 11:06:33;;;;;;;;;;;;;;;0.93;100.00;101328.48;1895234;74;20120;-44
2020/12/29 11:09:02;;;;;;;;;;;;;;;0.92;100.00;101318.98;1895745;74;20185;-44
2020/12/29 11:11:34;;;;;;;;;;;;;;;0.94;100.00;101327.66;1887884;74;20292;-44
2020/12/29 11:14:07;;;;;;;;;;;;;;;0.94;100.00;101326.36;1863969;75;20163;-45
2020/12/29 11:16:35;;;;;;;;;;;;;;;0.97;100.00;101332.05;1888185;74;20473;-44
2020/12/29 11:19:03;;;;;;;;;;;;;;;0.95;100.00;101324.25;1888675;74;20193;-44
2020/12/29 11:21:32;;;;;;;;;;;;;;;0.97;100.00;101327.77;1889954;74;20273;-41
2020/12/29 11:24:00;;;;;;;;;;;;;;;0.97;100.00;101326.48;1897126;74;20233;-45
2020/12/29 11:26:29;;;;;;;;;;;;;;;0.97;100.00;101326.89;1900036;74;20205;-45
2020/12/29 11:28:58;;;;;;;;;;;;;;;0.98;100.00;101323.48;1855038;74;20282;-45
2020/12/29 11:31:28;;;;;;;;;;;;;;;0.99;100.00;101323.92;1857817;74;20199;-43
2020/12/29 11:33:57;;;;;;;;;;;;;;;0.99;100.00;101326.09;1883563;74;20284;-43
2020/12/29 11:36:25;;;;;;;;;;;;;;;1.01;100.00;101334.77;1892645;74;20182;-43
2020/12/29 11:38:52;;;;;;;;;;;;;;;1.04;100.00;101331.42;1890429;74;20207;-44
2020/12/29 11:41:20;;;;;;;;;;;;;;;1.06;100.00;101337.48;1900296;74;20306;-44
2020/12/29 11:43:48;;;;;;;;;;;;;;;1.07;100.00;101342.70;1872628;75;20176;-44
2020/12/29 11:46:18;;;;;;;;;;;;;;;1.07;100.00;101331.09;1886932;74;20203;-44
2020/12/29 11:48:47;;;;;;;;;;;;;;;1.07;100.00;101332.37;1898540;74;20423;-43
2020/12/29 11:51:15;;;;;;;;;;;;;;;1.07;100.00;101332.37;1888608;74;20176;-44
2020/12/29 11:53:44;;;;;;;;;;;;;;;1.08;100.00;101324.22;1861202;75;20279;-45
2020/12/29 11:56:18;;;;;;;;;;;;;;;1.08;100.00;101328.09;1835567;74;20442;-44
2020/12/29 11:58:48;;;;;;;;;;;;;;;1.07;100.00;101327.63;1886411;74;21205;-43
2020/12/29 12:01:20;;;;;;;;;;;;;;;1.07;100.00;101328.51;1842769;74;20305;-44
2020/12/29 12:03:53;;;;;;;;;;;;;;;1.07;100.00;101327.22;1892377;74;20435;-45
2020/12/29 12:06:36;;;;;;;;;;;;;;;1.08;100.00;101321.64;1824843;74;20415;-45
2020/12/29 12:09:05;;;;;;;;;;;;;;;1.06;100.00;101320.30;1863740;75;20324;-43
2020/12/29 12:11:36;;;;;;;;;;;;;;;1.05;100.00;101330.59;1891585;74;20550;-45
2020/12/29 12:14:06;;;;;;;;;;;;;;;1.02;100.00;101332.66;1854527;74;20182;-42
2020/12/29 12:16:37;;;;;;;;;;;;;;;1.01;100.00;101330.02;1881986;74;20174;-44
2020/12/29 12:19:06;;;;;;;;;;;;;;;1.01;100.00;101333.89;1890613;74;20168;-45
2020/12/29 12:21:34;;;;;;;;;;;;;;;1.01;100.00;101341.23;1889227;74;20211;-44
2020/12/29 12:24:05;;;;;;;;;;;;;;;1.00;100.00;101339.47;1835424;74;20213;-45
2020/12/29 12:26:35;;;;;;;;;;;;;;;1.01;100.00;101350.67;1889588;74;20345;-44
2020/12/29 12:29:03;;;;;;;;;;;;;;;1.01;100.00;101361.00;1890968;74;20306;-44
2020/12/29 12:31:32;;;;;;;;;;;;;;;1.00;100.00;101363.11;1887346;74;20512;-45
2020/12/29 12:34:02;;;;;;;;;;;;;;;1.01;100.00;101361.88;1889775;74;20179;-44
2020/12/29 12:36:30;;;;;;;;;;;;;;;1.01;100.00;101357.12;1890513;74;20211;-44
2020/12/29 12:38:58;;;;;;;;;;;;;;;0.99;100.00;101360.94;1894678;74;20431;-42
2020/12/29 12:41:25;;;;;;;;;;;;;;;0.97;100.00;101360.03;1893995;74;20200;-45
2020/12/29 12:43:53;;;;;;;;;;;;;;;0.95;100.00;101355.64;1891395;74;20175;-44
2020/12/29 12:46:21;;;;;;;;;;;;;;;0.92;100.00;101355.11;1897933;74;20317;-44
2020/12/29 12:48:49;;;;;;;;;;;;;;;0.91;100.00;101375.33;1883268;74;20321;-52
2020/12/29 12:51:17;;;;;;;;;;;;;;;0.91;100.00;101389.52;1897404;74;20219;-46
2020/12/29 12:53:45;;;;;;;;;;;;;;;0.93;100.00;101383.09;1897108;74;20302;-45
2020/12/29 12:56:17;;;;;;;;;;;;;;;0.93;100.00;101375.35;1892529;74;20183;-44